createdAt,value
2019-02-27T00:05:15.384Z,96939.41
2019-02-27T00:08:04.162Z,96934.63
2019-02-27T00:10:33.620Z,96936.56
2019-02-27T00:13:24.711Z,96933.29
2019-02-27T00:16:12.926Z,96922.74
2019-02-27T00:19:01.695Z,96923.90
2019-02-27T00:21:50.554Z,96916.94
2019-02-27T00:24:39.350Z,96904.01
2019-02-27T00:27:28.139Z,96911.51
2019-02-27T00:30:16.907Z,96913.16
2019-02-27T00:33:05.690Z,96919.94
2019-02-27T00:35:54.468Z,96918.27
2019-02-27T00:38:43.251Z,96916.66
2019-02-27T00:41:32.056Z,96918.09
2019-02-27T00:44:20.832Z,96921.08
2019-02-27T00:47:09.624Z,96877.52
2019-02-27T00:49:58.408Z,96851.34
2019-02-27T00:52:50.876Z,96918.09
2019-02-27T00:55:39.410Z,96916.38
2019-02-27T00:58:28.239Z,96846.97
2019-02-27T01:01:17.027Z,96885.34
2019-02-27T01:04:05.798Z,96898.70
2019-02-27T01:06:54.596Z,96895.53
2019-02-27T01:09:43.375Z,96856.45
2019-02-27T01:12:32.195Z,96894.82
2019-02-27T01:15:20.981Z,96891.78
2019-02-27T01:18:09.769Z,96882.06
2019-02-27T01:20:58.541Z,96882.98
2019-02-27T01:23:47.343Z,96885.66
2019-02-27T01:26:36.131Z,96881.80
2019-02-27T01:29:24.897Z,96872.12
2019-02-27T01:32:13.706Z,96873.33
2019-02-27T01:35:02.487Z,96870.98
2019-02-27T01:37:51.282Z,96863.11
2019-02-27T01:40:40.045Z,96857.04
2019-02-27T01:43:28.827Z,96852.84
2019-02-27T01:46:17.608Z,96777.32
2019-02-27T01:49:06.391Z,96850.73
2019-02-27T01:51:55.174Z,96854.86
2019-02-27T01:54:46.036Z,96854.52
2019-02-27T01:57:27.645Z,96849.30
2019-02-27T02:03:25.937Z,96800.80
2019-02-27T02:06:15.000Z,96848.95
2019-02-27T02:09:42.465Z,96845.30
2019-02-27T02:12:31.237Z,96834.51
2019-02-27T02:16:00.887Z,96838.73
2019-02-27T02:19:10.161Z,96851.49
2019-02-27T02:22:19.846Z,96838.95
2019-02-27T02:25:47.301Z,96831.36
2019-02-27T02:28:56.998Z,96820.28
2019-02-27T02:32:24.539Z,96792.84
2019-02-27T02:35:34.282Z,96822.73
2019-02-27T02:38:43.952Z,96807.63
2019-02-27T02:42:11.406Z,96822.54
2019-02-27T02:45:38.885Z,96811.11
2019-02-27T02:48:53.242Z,96752.87
2019-02-27T02:52:05.602Z,96811.96
2019-02-27T02:55:13.633Z,96803.29
2019-02-27T02:57:51.033Z,96802.24
2019-02-27T03:00:50.663Z,96809.34
2019-02-27T03:03:49.365Z,96811.19
2019-02-27T03:06:48.972Z,96796.05
2019-02-27T03:09:31.881Z,96800.79
2019-02-27T03:12:17.868Z,96799.58
2019-02-27T03:15:12.192Z,96796.20
2019-02-27T03:17:53.742Z,96805.33
2019-02-27T03:20:39.531Z,96803.09
2019-02-27T03:23:42.263Z,96801.43
2019-02-27T03:26:40.261Z,96801.16
2019-02-27T03:29:42.392Z,96789.78
2019-02-27T03:32:41.392Z,96786.31
2019-02-27T03:35:29.529Z,96787.37
2019-02-27T03:38:23.756Z,96781.52
2019-02-27T03:41:09.297Z,96786.05
2019-02-27T03:43:55.151Z,96782.86
2019-02-27T03:46:37.979Z,96789.63
2019-02-27T03:49:27.551Z,96785.47
2019-02-27T03:52:24.222Z,96788.23
2019-02-27T03:55:25.328Z,96784.97
2019-02-27T03:58:30.645Z,96788.02
2019-02-27T04:01:08.606Z,96791.29
2019-02-27T04:04:48.238Z,96797.33
2019-02-27T04:07:57.959Z,96786.80
2019-02-27T04:10:46.750Z,96791.80
2019-02-27T04:13:35.499Z,96737.46
2019-02-27T04:16:28.944Z,96789.25
2019-02-27T04:18:55.424Z,96791.30
2019-02-27T04:21:44.237Z,96793.45
2019-02-27T04:24:13.687Z,96789.25
2019-02-27T04:26:43.145Z,96790.47
2019-02-27T04:29:12.586Z,96792.48
2019-02-27T04:31:42.041Z,96790.36
2019-02-27T04:34:11.524Z,96782.98
2019-02-27T04:36:40.994Z,96786.88
2019-02-27T04:39:10.471Z,96786.98
2019-02-27T04:41:40.055Z,96792.41
2019-02-27T04:44:09.498Z,96786.03
2019-02-27T04:46:39.000Z,96788.19
2019-02-27T04:49:08.449Z,96791.98
2019-02-27T04:51:37.929Z,96795.97
2019-02-27T04:54:07.568Z,96795.57
2019-02-27T04:56:37.061Z,96785.76
2019-02-27T04:59:06.544Z,96788.61
2019-02-27T05:01:36.768Z,96790.56
2019-02-27T05:04:07.050Z,96790.46
2019-02-27T05:06:36.514Z,96788.40
2019-02-27T05:09:07.634Z,96788.09
2019-02-27T05:11:37.172Z,96786.47
2019-02-27T05:14:06.652Z,96795.55
2019-02-27T05:16:36.344Z,96796.06
2019-02-27T05:19:05.815Z,96792.50
2019-02-27T05:21:35.250Z,96789.02
2019-02-27T05:24:05.181Z,96789.02
2019-02-27T05:26:35.899Z,96789.95
2019-02-27T05:29:05.661Z,96786.36
2019-02-27T05:31:35.190Z,96785.53
2019-02-27T05:34:04.727Z,96782.05
2019-02-27T05:36:34.191Z,96789.52
2019-02-27T05:39:04.141Z,96790.73
2019-02-27T05:41:33.772Z,96792.69
2019-02-27T05:44:04.760Z,96790.56
2019-02-27T05:46:35.707Z,96792.80
2019-02-27T05:49:05.497Z,96792.80
2019-02-27T05:51:37.020Z,96788.08
2019-02-27T05:54:07.672Z,96793.70
2019-02-27T05:56:37.327Z,96789.00
2019-02-27T05:59:06.806Z,96799.33
2019-02-27T06:01:38.193Z,96802.70
2019-02-27T06:04:07.447Z,96806.16
2019-02-27T06:06:36.906Z,96806.06
2019-02-27T06:09:10.353Z,96809.86
2019-02-27T06:11:39.463Z,96811.89
2019-02-27T06:14:08.953Z,96813.09
2019-02-27T06:16:40.675Z,96811.53
2019-02-27T06:19:09.691Z,96814.37
2019-02-27T06:21:39.118Z,96813.03
2019-02-27T06:24:12.593Z,96809.06
2019-02-27T06:26:40.556Z,96811.22
2019-02-27T06:29:10.332Z,96811.74
2019-02-27T06:31:39.873Z,96816.21
2019-02-27T06:34:09.386Z,96813.26
2019-02-27T06:36:41.848Z,96812.44
2019-02-27T06:39:10.168Z,96812.73
2019-02-27T06:41:40.079Z,96816.25
2019-02-27T06:44:09.523Z,96820.36
2019-02-27T06:46:38.978Z,96813.97
2019-02-27T06:49:08.792Z,96817.45
2019-02-27T06:51:38.241Z,96822.20
2019-02-27T06:54:07.765Z,96818.87
2019-02-27T06:56:37.339Z,96817.75
2019-02-27T06:59:06.847Z,96826.36
2019-02-27T07:01:36.286Z,96817.71
2019-02-27T07:04:08.308Z,96822.36
2019-02-27T07:06:37.911Z,96814.58
2019-02-27T07:09:11.429Z,96820.35
2019-02-27T07:11:39.228Z,96821.92
2019-02-27T07:14:09.896Z,96813.32
2019-02-27T07:16:39.341Z,96816.58
2019-02-27T07:19:09.597Z,96816.92
2019-02-27T07:21:39.140Z,96812.78
2019-02-27T07:24:08.642Z,96815.92
2019-02-27T07:26:38.118Z,96814.78
2019-02-27T07:29:07.605Z,96810.78
2019-02-27T07:31:37.194Z,96809.44
2019-02-27T07:34:06.699Z,96811.61
2019-02-27T07:36:38.565Z,96809.78
2019-02-27T07:39:08.689Z,96806.55
2019-02-27T07:41:38.560Z,96804.19
2019-02-27T07:44:07.995Z,96796.97
2019-02-27T07:46:37.538Z,96798.92
2019-02-27T07:49:07.417Z,96796.80
2019-02-27T07:51:36.895Z,96790.18
2019-02-27T07:54:06.375Z,96787.73
2019-02-27T07:56:35.906Z,96786.52
2019-02-27T07:59:05.530Z,96791.09
2019-02-27T08:01:43.503Z,96790.69
2019-02-27T08:04:06.867Z,96788.58
2019-02-27T08:06:37.822Z,96784.81
2019-02-27T08:09:09.019Z,96790.96
2019-02-27T08:11:38.487Z,96791.11
2019-02-27T08:14:08.000Z,96792.75
2019-02-27T08:16:37.485Z,96792.13
2019-02-27T08:19:08.898Z,96789.18
2019-02-27T08:21:38.135Z,96783.80
2019-02-27T08:24:08.595Z,96783.66
2019-02-27T08:26:38.080Z,96778.90
2019-02-27T08:29:07.609Z,96772.27
2019-02-27T08:31:37.142Z,96777.45
2019-02-27T08:34:06.603Z,96780.42
2019-02-27T08:36:36.130Z,96777.87
2019-02-27T08:39:06.831Z,96772.47
2019-02-27T08:41:36.328Z,96761.69
2019-02-27T08:44:05.803Z,96763.86
2019-02-27T08:46:37.107Z,96766.30
2019-02-27T08:49:06.502Z,96766.23
2019-02-27T08:51:35.996Z,96765.42
2019-02-27T08:54:05.468Z,96768.11
2019-02-27T08:56:35.047Z,96757.63
2019-02-27T08:59:05.866Z,96756.27
2019-02-27T09:01:37.778Z,96759.52
2019-02-27T09:04:11.451Z,96750.79
2019-02-27T09:06:38.216Z,96749.68
2019-02-27T09:09:08.416Z,96752.66
2019-02-27T09:11:40.059Z,96749.56
2019-02-27T09:14:09.182Z,96750.03
2019-02-27T09:16:44.579Z,96751.81
2019-02-27T09:21:43.590Z,96740.78
2019-02-27T09:24:13.054Z,96738.81
2019-02-27T09:26:42.531Z,96734.05
2019-02-27T09:29:12.003Z,96735.55
2019-02-27T09:31:50.493Z,96734.90
2019-02-27T09:34:13.769Z,96736.92
2019-02-27T09:36:43.876Z,96725.67
2019-02-27T09:39:13.557Z,96725.31
2019-02-27T09:41:46.119Z,96724.20
2019-02-27T09:44:14.235Z,96717.92
2019-02-27T09:46:43.724Z,96707.90
2019-02-27T09:49:13.283Z,96711.57
2019-02-27T09:51:42.831Z,96708.45
2019-02-27T09:54:13.293Z,96709.47
2019-02-27T09:56:44.540Z,96709.56
2019-02-27T09:59:16.747Z,96703.23
2019-02-27T10:01:46.209Z,96705.25
2019-02-27T10:04:16.618Z,96704.60
2019-02-27T10:06:47.670Z,96705.47
2019-02-27T10:09:18.432Z,96703.91
2019-02-27T10:11:47.937Z,96699.48
2019-02-27T10:14:17.439Z,96690.73
2019-02-27T10:16:46.922Z,96688.55
2019-02-27T10:19:17.186Z,96688.02
2019-02-27T10:21:47.568Z,96686.07
2019-02-27T10:24:17.209Z,96685.29
2019-02-27T10:26:46.703Z,96682.22
2019-02-27T10:29:16.181Z,96683.29
2019-02-27T10:31:45.663Z,96680.77
2019-02-27T10:34:17.601Z,96668.77
2019-02-27T10:36:47.664Z,96675.97
2019-02-27T10:39:17.652Z,96666.88
2019-02-27T10:41:49.906Z,96666.78
2019-02-27T10:44:18.365Z,96668.68
2019-02-27T10:46:47.849Z,96664.78
2019-02-27T10:49:21.448Z,96654.87
2019-02-27T10:51:49.382Z,96648.23
2019-02-27T10:54:18.851Z,96645.34
2019-02-27T10:56:48.368Z,96650.02
2019-02-27T10:59:19.640Z,96642.88
2019-02-27T11:01:49.104Z,96643.60
2019-02-27T11:04:18.569Z,96645.33
2019-02-27T11:06:48.040Z,96640.79
2019-02-27T11:09:23.936Z,96636.84
2019-02-27T11:11:53.897Z,96646.34
2019-02-27T11:14:25.039Z,96636.75
2019-02-27T11:16:54.529Z,96636.52
2019-02-27T11:19:24.077Z,96625.81
2019-02-27T11:21:53.638Z,96622.52
2019-02-27T11:24:24.706Z,96621.94
2019-02-27T11:26:54.349Z,96615.76
2019-02-27T11:29:24.426Z,96609.22
2019-02-27T11:31:54.046Z,96605.03
2019-02-27T11:34:23.704Z,96601.02
2019-02-27T11:36:53.195Z,96595.19
2019-02-27T11:39:22.646Z,96594.68
2019-02-27T11:41:52.146Z,96594.95
2019-02-27T11:44:21.636Z,96593.72
2019-02-27T11:46:58.732Z,96585.84
2019-02-27T11:49:22.359Z,96586.86
2019-02-27T11:51:57.789Z,96582.58
2019-02-27T11:54:27.269Z,96590.20
2019-02-27T11:56:57.062Z,96584.95
2019-02-27T11:59:26.622Z,96576.39
2019-02-27T12:01:56.275Z,96565.97
2019-02-27T12:04:25.727Z,96566.50
2019-02-27T12:06:55.211Z,96563.03
2019-02-27T12:09:24.754Z,96556.38
2019-02-27T12:11:54.297Z,96552.17
2019-02-27T12:14:23.761Z,96554.84
2019-02-27T12:16:53.250Z,96549.30
2019-02-27T12:19:22.801Z,96540.13
2019-02-27T12:21:52.293Z,96532.98
2019-02-27T12:24:21.775Z,96535.33
2019-02-27T12:26:51.237Z,96528.17
2019-02-27T12:29:20.832Z,96526.55
2019-02-27T12:31:50.337Z,96517.69
2019-02-27T12:34:19.910Z,96518.10
2019-02-27T12:36:49.917Z,96516.69
2019-02-27T12:39:20.594Z,96503.19
2019-02-27T12:41:50.093Z,96498.14
2019-02-27T12:44:19.549Z,96490.60
2019-02-27T12:46:49.040Z,96488.05
2019-02-27T12:49:20.025Z,96488.28
2019-02-27T12:51:49.775Z,96486.92
2019-02-27T12:54:19.231Z,96490.19
2019-02-27T12:56:48.762Z,96476.40
2019-02-27T12:59:18.218Z,96474.36
2019-02-27T13:01:51.681Z,96468.98
2019-02-27T13:04:20.086Z,96462.16
2019-02-27T13:06:49.639Z,96464.52
2019-02-27T13:09:20.065Z,96460.30
2019-02-27T13:11:49.587Z,96458.61
2019-02-27T13:14:19.076Z,96451.95
2019-02-27T13:16:49.493Z,96456.63
2019-02-27T13:19:19.831Z,96455.44
2019-02-27T13:21:49.333Z,96446.19
2019-02-27T13:24:18.833Z,96443.40
2019-02-27T13:26:48.357Z,96443.36
2019-02-27T13:29:20.591Z,96440.90
2019-02-27T13:31:51.456Z,96442.95
2019-02-27T13:34:21.215Z,96442.41
2019-02-27T13:36:50.714Z,96433.23
2019-02-27T13:39:20.185Z,96426.64
2019-02-27T13:41:50.724Z,96430.98
2019-02-27T13:44:20.213Z,96425.66
2019-02-27T13:46:49.718Z,96417.23
2019-02-27T13:49:19.227Z,96415.38
2019-02-27T13:51:48.704Z,96416.02
2019-02-27T13:54:18.178Z,96411.77
2019-02-27T13:56:47.675Z,96401.91
2019-02-27T13:59:17.142Z,96402.83
2019-02-27T14:01:46.648Z,96402.23
2019-02-27T14:04:16.186Z,96401.97
2019-02-27T14:06:47.482Z,96393.45
2019-02-27T14:09:18.962Z,96384.97
2019-02-27T14:11:48.334Z,96383.64
2019-02-27T14:14:18.622Z,96384.64
2019-02-27T14:16:49.321Z,96387.36
2019-02-27T14:19:21.363Z,96381.20
2019-02-27T14:21:50.246Z,96365.86
2019-02-27T14:24:20.661Z,96370.20
2019-02-27T14:26:50.778Z,96359.68
2019-02-27T14:29:20.237Z,96365.36
2019-02-27T14:31:49.792Z,96357.78
2019-02-27T14:34:19.224Z,96363.64
2019-02-27T14:36:49.082Z,96357.56
2019-02-27T14:39:18.791Z,96358.27
2019-02-27T14:41:49.263Z,96349.85
2019-02-27T14:44:19.493Z,96348.20
2019-02-27T14:46:49.088Z,96349.25
2019-02-27T14:49:18.642Z,96346.67
2019-02-27T14:51:48.147Z,96350.02
2019-02-27T14:57:25.234Z,96347.30
2019-02-27T15:00:40.013Z,96285.37
2019-02-27T15:03:29.248Z,96288.55
2019-02-27T15:06:19.270Z,96324.75
2019-02-27T15:12:35.396Z,96324.97
2019-02-27T15:15:45.096Z,96305.31
2019-02-27T15:18:33.929Z,96319.48
2019-02-27T15:21:24.452Z,96283.72
2019-02-27T15:24:13.221Z,96312.37
2019-02-27T15:26:54.830Z,96326.25
2019-02-27T15:29:43.588Z,96327.97
2019-02-27T15:32:32.391Z,96325.89
2019-02-27T15:35:22.282Z,96321.00
2019-02-27T15:38:12.428Z,96311.73
2019-02-27T15:41:03.333Z,96280.34
2019-02-27T15:43:59.976Z,96295.73
2019-02-27T15:46:43.307Z,96302.59
2019-02-27T15:49:32.114Z,96295.38
2019-02-27T15:52:20.918Z,96294.07
2019-02-27T15:55:34.249Z,96292.73
2019-02-27T15:58:21.170Z,96281.93
2019-02-27T16:01:09.961Z,96285.50
2019-02-27T16:03:58.727Z,96283.05
2019-02-27T16:06:47.559Z,96280.06
2019-02-27T16:09:36.291Z,96281.48
2019-02-27T16:12:25.959Z,96273.42
2019-02-27T16:15:36.502Z,96275.05
2019-02-27T16:18:25.316Z,96200.13
2019-02-27T16:21:14.129Z,96274.27
2019-02-27T16:24:02.910Z,96251.86
2019-02-27T16:26:44.205Z,96289.63
2019-02-27T16:29:32.972Z,96210.38
2019-02-27T16:32:21.778Z,96291.23
2019-02-27T16:35:29.579Z,96199.55
2019-02-27T16:38:18.376Z,96292.28
2019-02-27T16:41:07.159Z,96291.19
2019-02-27T16:43:55.936Z,96286.58
2019-02-27T16:46:44.895Z,96240.73
2019-02-27T16:49:35.238Z,96198.95
2019-02-27T16:52:24.041Z,96255.83
2019-02-27T16:55:36.900Z,96214.47
2019-02-27T16:58:24.215Z,96274.69
2019-02-27T17:01:13.087Z,96260.63
2019-02-27T17:04:01.958Z,96275.72
2019-02-27T17:06:52.187Z,96246.82
2019-02-27T17:09:43.881Z,96192.00
2019-02-27T17:12:31.790Z,96244.55
2019-02-27T17:15:20.544Z,96257.50
2019-02-27T17:18:09.346Z,96278.71
2019-02-27T17:20:58.119Z,96277.34
2019-02-27T17:23:46.949Z,96263.83
2019-02-27T17:26:39.065Z,96275.95
2019-02-27T17:29:06.899Z,96201.39
2019-02-27T17:31:56.486Z,96274.27
2019-02-27T17:34:47.692Z,96273.65
2019-02-27T17:37:37.399Z,96264.98
2019-02-27T17:40:29.076Z,96267.62
2019-02-27T17:43:17.761Z,96262.70
2019-02-27T17:46:06.570Z,96200.90
2019-02-27T17:48:55.850Z,96226.52
2019-02-27T17:51:25.485Z,96255.10
2019-02-27T17:53:55.065Z,96253.92
2019-02-27T17:56:26.119Z,96251.13
2019-02-27T18:02:09.650Z,96192.47
2019-02-27T18:04:58.441Z,96241.86
2019-02-27T18:07:47.270Z,96245.56
2019-02-27T18:10:37.569Z,96242.53
2019-02-27T18:13:26.598Z,96214.11
2019-02-27T18:16:15.378Z,96238.88
2019-02-27T18:19:04.203Z,96168.22
2019-02-27T18:21:53.020Z,96243.98
2019-02-27T18:24:34.990Z,96229.17
2019-02-27T18:27:25.403Z,96246.26
2019-02-27T18:29:55.629Z,96237.84
2019-02-27T18:32:25.130Z,96242.09
2019-02-27T18:34:55.250Z,96237.59
2019-02-27T18:37:24.879Z,96235.87
2019-02-27T18:39:54.315Z,96230.44
2019-02-27T18:42:23.744Z,96232.81
2019-02-27T18:44:53.222Z,96230.17
2019-02-27T18:47:22.644Z,96224.22
2019-02-27T18:49:52.948Z,96224.47
2019-02-27T18:52:22.534Z,96221.50
2019-02-27T18:54:54.739Z,96218.92
2019-02-27T18:57:23.160Z,96222.05
2019-02-27T18:59:52.656Z,96217.65
2019-02-27T19:02:22.128Z,96216.48
2019-02-27T19:04:51.577Z,96222.27
2019-02-27T19:07:21.096Z,96223.52
2019-02-27T19:09:50.619Z,96221.84
2019-02-27T19:12:25.001Z,96218.43
2019-02-27T19:14:51.252Z,96218.56
2019-02-27T19:17:20.767Z,96211.34
2019-02-27T19:19:50.203Z,96211.21
2019-02-27T19:22:19.913Z,96214.72
2019-02-27T19:24:50.336Z,96216.36
2019-02-27T19:27:19.961Z,96210.86
2019-02-27T19:29:49.415Z,96210.78
2019-02-27T19:32:18.876Z,96202.39
2019-02-27T19:34:48.319Z,96209.56
2019-02-27T19:37:17.853Z,96205.76
2019-02-27T19:39:47.285Z,96209.78
2019-02-27T19:42:16.924Z,96196.20
2019-02-27T19:44:46.360Z,96193.69
2019-02-27T19:47:18.467Z,96192.30
2019-02-27T19:49:46.977Z,96188.80
2019-02-27T19:52:16.503Z,96191.43
2019-02-27T19:54:45.944Z,96187.52
2019-02-27T19:57:15.400Z,96188.17
2019-02-27T19:59:44.838Z,96189.03
2019-02-27T20:02:14.308Z,96187.63
2019-02-27T20:04:46.016Z,96184.90
2019-02-27T20:07:15.985Z,96187.83
2019-02-27T20:09:45.439Z,96183.25
2019-02-27T20:12:15.804Z,96178.73
2019-02-27T20:14:46.065Z,96175.63
2019-02-27T20:17:15.536Z,96166.27
2019-02-27T20:19:44.973Z,96169.97
2019-02-27T20:22:15.428Z,96166.94
2019-02-27T20:24:46.530Z,96174.85
2019-02-27T20:27:15.992Z,96163.97
2019-02-27T20:29:45.447Z,96168.33
2019-02-27T20:32:14.994Z,96170.96
2019-02-27T20:34:45.912Z,96168.08
2019-02-27T20:37:15.749Z,96164.22
2019-02-27T20:39:45.245Z,96163.14
2019-02-27T20:42:14.771Z,96161.03
2019-02-27T20:44:44.208Z,96158.31
2019-02-27T20:47:13.744Z,96158.63
2019-02-27T20:49:44.743Z,96150.59
2019-02-27T20:52:15.039Z,96159.40
2019-02-27T20:54:45.070Z,96152.31
2019-02-27T20:57:14.867Z,96145.94
2019-02-27T20:59:44.309Z,96140.43
2019-02-27T21:02:13.742Z,96139.74
2019-02-27T21:04:43.215Z,96139.98
2019-02-27T21:07:21.880Z,96129.78
2019-02-27T21:09:45.143Z,96129.29
2019-02-27T21:12:15.112Z,96130.75
2019-02-27T21:14:44.680Z,96128.15
2019-02-27T21:17:16.526Z,96118.42
2019-02-27T21:19:45.305Z,96114.19
2019-02-27T21:22:14.741Z,96110.89
2019-02-27T21:24:44.221Z,96113.02
2019-02-27T21:27:13.657Z,96106.96
2019-02-27T21:29:43.551Z,96101.89
2019-02-27T21:32:14.033Z,96106.01
2019-02-27T21:34:43.501Z,96103.98
2019-02-27T21:37:12.974Z,96101.94
2019-02-27T21:39:42.545Z,96096.42
2019-02-27T21:42:18.605Z,96095.78
2019-02-27T21:44:45.212Z,96097.42
2019-02-27T21:47:14.649Z,96095.97
2019-02-27T21:49:44.101Z,96094.61
2019-02-27T21:52:13.533Z,96091.84
2019-02-27T21:54:42.978Z,96089.36
2019-02-27T21:57:12.412Z,96096.48
2019-02-27T21:59:41.863Z,96095.52
2019-02-27T22:02:11.355Z,96093.16
2019-02-27T22:04:41.163Z,96089.88
2019-02-27T22:07:11.965Z,96094.97
2019-02-27T22:09:44.614Z,96094.52
2019-02-27T22:12:12.613Z,96096.15
2019-02-27T22:14:42.056Z,96091.90
2019-02-27T22:17:11.495Z,96093.56
2019-02-27T22:19:40.941Z,96089.11
2019-02-27T22:22:10.377Z,96096.94
2019-02-27T22:24:39.829Z,96091.90
2019-02-27T22:27:12.828Z,96083.08
2019-02-27T22:29:40.435Z,96082.07
2019-02-27T22:32:12.073Z,96080.98
2019-02-27T22:34:41.054Z,96079.19
2019-02-27T22:37:10.495Z,96081.05
2019-02-27T22:39:39.942Z,96078.95
2019-02-27T22:42:12.057Z,96075.33
2019-02-27T22:44:40.549Z,96077.42
2019-02-27T22:47:09.984Z,96072.52
2019-02-27T22:49:39.433Z,96072.59
2019-02-27T22:52:08.882Z,96071.33
2019-02-27T22:54:38.322Z,96063.91
2019-02-27T22:57:07.748Z,96061.81
2019-02-27T22:59:38.062Z,96061.88
2019-02-27T23:02:07.558Z,96066.99
2019-02-27T23:04:36.997Z,96058.63
2019-02-27T23:07:06.434Z,96057.05
2019-02-27T23:09:36.895Z,96055.33
2019-02-27T23:12:08.596Z,96050.23
2019-02-27T23:14:38.039Z,96050.05
2019-02-27T23:17:07.471Z,96049.66
2019-02-27T23:19:36.896Z,96045.72
2019-02-27T23:22:06.489Z,96039.81
2019-02-27T23:24:35.946Z,96032.38
2019-02-27T23:27:05.382Z,96031.75
2019-02-27T23:29:39.708Z,96029.72
2019-02-27T23:32:05.969Z,96026.17
2019-02-27T23:34:35.433Z,96018.91
2019-02-27T23:37:04.917Z,96017.39
2019-02-27T23:39:34.385Z,96020.93
2019-02-27T23:42:03.801Z,96017.63
2019-02-27T23:44:33.231Z,96010.56
2019-02-27T23:47:02.665Z,96003.62
2019-02-27T23:49:32.099Z,96006.45
2019-02-27T23:52:01.529Z,96006.73
2019-02-27T23:54:35.468Z,96003.20
2019-02-27T23:57:02.119Z,96009.35
2019-02-27T23:59:33.008Z,96000.53
